Haines, AK

7:57 AM AKDT on September 23, 2014 (GMT -0800)
Haines | Change Station
CLOSE
Current Station
Airport
Location: Haines,
Elevation: 16 ft
Nearby Weather Stations

Elev 16 ft 59.24 °N, 135.51 °W | Updated 3 minutes ago

Overcast
Overcast
47 °F
Feels Like 47 °F
N
12
Wind Variable Wind from WNW

Today
High -- | Low -- °F
--% Chance of Precip.
Yesterday
High -- | Low -- °F
Precip. -- in
6:49 AM 6:57 PM
Waning Crescent, 0% visible
Pressure 29.93 in
Visibility 10.0 miles
Clouds Overcast 2000 ft
Dew Point 45 °F
Humidity 93%
Rainfall 0.00 in
Snow Depth 2 in , 1 in , 0 in
UV 0 out of 12
Pollen Not available.
Air Quality Not available.
Flu Activity Not available.
METAR PAHN 231554Z AUTO 29010KT 10SM OVC020 08/07 A2992 RMK AO2 SLP133 T00830072 TSNO

More Conditions Fewer Conditions

Pressure 29.93 in
Visibility 10.0 miles
Clouds Overcast 2000 ft
Dew Point 45 °F
Humidity 93%
Rainfall 0.00 in
Snow Depth 2 in , 1 in , 0 in
UV 0 out of 12
Pollen Not available.
Air Quality Not available.
Flu Activity Not available.
METAR PAHN 231554Z AUTO 29010KT 10SM OVC020 08/07 A2992 RMK AO2 SLP133 T00830072 TSNO

More Conditions Fewer Conditions

10-Day Weather Forecast

Almanac

Astronomy

Sep. 23, 2014 Rise Set
Actual Time 6:49 AM AKDT 6:57 PM AKDT
Civil Twilight 6:08 AM AKDT 7:38 PM AKDT
Nautical Twilight 5:19 AM AKDT 8:26 PM AKDT
Astronomical Twilight 4:26 AM AKDT 9:19 PM AKDT
Moon 6:20 AM AKDT 6:35 PM AKDT
Length of Visible Light 13h 30m
Length of Day
12h 08m
Tomorrow will be 5m 14s shorter.
Waning Crescent, 0% of the Moon is Illuminated
Today
Waning Crescent
Sep 24
New
Oct 1
First Quarter
Oct 8
Full
Oct 15
Last Quarter

Today's Extremes

State Highs State Lows

Community

WunderPhotos

Upload Photos

1,755,727 photos uploaded!

WunderBlogs® & News

Nearby

Snow Depth

Station Depth Elevation
MF Bradley River 2 in 2300 ft
Point Mackenzie 1 in 200 ft
Granite Creek 0 in 1240 ft
Grouse Creek Divide 0 in 700 ft
Mcneil Canyon 1 in 1320 ft

Earthquake Activity

City Distance Mag. Time & Date
No recent earthquake activity has been reported nearby.
Minimum magnitude displayed is 2.5.

Coastal Water Temperatures

Place Temperature
No Stations Reporting

Nearby Weather Stations